sensor_id;sensor_type;location;lat;lon;timestamp;P1;durP1;ratioP1;P2;durP2;ratioP2
13179;SDS011;6655;48.872;9.748;2023-04-06T00:00:43;0.00;;;0.00;;
13179;SDS011;6655;48.872;9.748;2023-04-06T00:03:11;0.10;;;0.10;;
13179;SDS011;6655;48.872;9.748;2023-04-06T00:05:38;0.13;;;0.13;;
13179;SDS011;6655;48.872;9.748;2023-04-06T00:08:04;0.00;;;0.00;;
13179;SDS011;6655;48.872;9.748;2023-04-06T00:10:31;0.00;;;0.00;;
13179;SDS011;6655;48.872;9.748;2023-04-06T00:12:58;0.33;;;0.33;;
13179;SDS011;6655;48.872;9.748;2023-04-06T00:15:27;0.00;;;0.00;;
13179;SDS011;6655;48.872;9.748;2023-04-06T00:17:55;0.00;;;0.00;;
13179;SDS011;6655;48.872;9.748;2023-04-06T00:20:22;0.00;;;0.00;;
13179;SDS011;6655;48.872;9.748;2023-04-06T00:22:49;0.00;;;0.00;;
13179;SDS011;6655;48.872;9.748;2023-04-06T00:25:16;0.00;;;0.00;;
13179;SDS011;6655;48.872;9.748;2023-04-06T00:27:42;0.00;;;0.00;;
13179;SDS011;6655;48.872;9.748;2023-04-06T00:30:09;0.00;;;0.00;;
13179;SDS011;6655;48.872;9.748;2023-04-06T00:32:36;0.00;;;0.00;;
13179;SDS011;6655;48.872;9.748;2023-04-06T00:35:02;0.00;;;0.00;;
13179;SDS011;6655;48.872;9.748;2023-04-06T00:37:30;0.00;;;0.00;;
13179;SDS011;6655;48.872;9.748;2023-04-06T00:39:56;0.00;;;0.00;;
13179;SDS011;6655;48.872;9.748;2023-04-06T00:42:23;0.00;;;0.00;;
13179;SDS011;6655;48.872;9.748;2023-04-06T00:44:51;0.00;;;0.00;;
13179;SDS011;6655;48.872;9.748;2023-04-06T00:47:18;0.00;;;0.00;;
13179;SDS011;6655;48.872;9.748;2023-04-06T00:49:45;0.00;;;0.00;;
13179;SDS011;6655;48.872;9.748;2023-04-06T00:52:11;0.00;;;0.00;;
13179;SDS011;6655;48.872;9.748;2023-04-06T00:54:39;0.23;;;0.20;;
13179;SDS011;6655;48.872;9.748;2023-04-06T00:57:06;0.10;;;0.10;;
13179;SDS011;6655;48.872;9.748;2023-04-06T00:59:33;0.20;;;0.10;;
13179;SDS011;6655;48.872;9.748;2023-04-06T01:02:01;0.20;;;0.20;;
13179;SDS011;6655;48.872;9.748;2023-04-06T01:04:37;0.00;;;0.00;;
13179;SDS011;6655;48.872;9.748;2023-04-06T01:07:08;0.00;;;0.00;;
13179;SDS011;6655;48.872;9.748;2023-04-06T01:09:44;0.00;;;0.00;;
13179;SDS011;6655;48.872;9.748;2023-04-06T01:12:17;0.00;;;0.00;;
13179;SDS011;6655;48.872;9.748;2023-04-06T01:14:44;1.80;;;0.40;;
13179;SDS011;6655;48.872;9.748;2023-04-06T01:17:10;0.63;;;0.50;;
13179;SDS011;6655;48.872;9.748;2023-04-06T01:19:38;0.00;;;0.00;;
13179;SDS011;6655;48.872;9.748;2023-04-06T01:22:05;0.00;;;0.00;;
13179;SDS011;6655;48.872;9.748;2023-04-06T01:24:33;0.00;;;0.00;;
13179;SDS011;6655;48.872;9.748;2023-04-06T01:27:06;0.00;;;0.00;;
13179;SDS011;6655;48.872;9.748;2023-04-06T01:30:05;0.00;;;0.00;;
13179;SDS011;6655;48.872;9.748;2023-04-06T01:32:43;0.00;;;0.00;;
13179;SDS011;6655;48.872;9.748;2023-04-06T01:35:13;0.00;;;0.00;;
13179;SDS011;6655;48.872;9.748;2023-04-06T01:37:48;0.00;;;0.00;;
13179;SDS011;6655;48.872;9.748;2023-04-06T01:40:24;0.00;;;0.00;;
13179;SDS011;6655;48.872;9.748;2023-04-06T01:42:51;0.00;;;0.00;;
13179;SDS011;6655;48.872;9.748;2023-04-06T01:45:26;0.00;;;0.00;;
13179;SDS011;6655;48.872;9.748;2023-04-06T01:47:57;0.00;;;0.00;;
13179;SDS011;6655;48.872;9.748;2023-04-06T01:50:26;0.10;;;0.10;;
13179;SDS011;6655;48.872;9.748;2023-04-06T01:52:52;0.00;;;0.00;;
13179;SDS011;6655;48.872;9.748;2023-04-06T01:55:20;0.07;;;0.07;;
13179;SDS011;6655;48.872;9.748;2023-04-06T01:58:11;0.00;;;0.00;;
13179;SDS011;6655;48.872;9.748;2023-04-06T02:00:38;0.00;;;0.00;;
13179;SDS011;6655;48.872;9.748;2023-04-06T02:03:05;0.00;;;0.00;;
13179;SDS011;6655;48.872;9.748;2023-04-06T02:05:32;0.00;;;0.00;;
13179;SDS011;6655;48.872;9.748;2023-04-06T02:08:03;0.10;;;0.10;;
13179;SDS011;6655;48.872;9.748;2023-04-06T02:10:33;0.23;;;0.23;;
13179;SDS011;6655;48.872;9.748;2023-04-06T02:13:06;0.00;;;0.00;;
13179;SDS011;6655;48.872;9.748;2023-04-06T02:15:34;0.27;;;0.27;;
13179;SDS011;6655;48.872;9.748;2023-04-06T02:18:01;0.00;;;0.00;;
13179;SDS011;6655;48.872;9.748;2023-04-06T02:20:27;0.00;;;0.00;;
13179;SDS011;6655;48.872;9.748;2023-04-06T02:22:56;0.00;;;0.00;;
13179;SDS011;6655;48.872;9.748;2023-04-06T02:25:22;0.00;;;0.00;;
13179;SDS011;6655;48.872;9.748;2023-04-06T02:27:49;0.00;;;0.00;;
13179;SDS011;6655;48.872;9.748;2023-04-06T02:30:15;0.00;;;0.00;;
13179;SDS011;6655;48.872;9.748;2023-04-06T02:32:43;0.00;;;0.00;;
13179;SDS011;6655;48.872;9.748;2023-04-06T02:35:10;0.00;;;0.00;;
13179;SDS011;6655;48.872;9.748;2023-04-06T02:37:38;0.00;;;0.00;;
13179;SDS011;6655;48.872;9.748;2023-04-06T02:40:05;0.13;;;0.13;;
13179;SDS011;6655;48.872;9.748;2023-04-06T02:42:32;0.00;;;0.00;;
13179;SDS011;6655;48.872;9.748;2023-04-06T02:45:00;0.23;;;0.23;;
13179;SDS011;6655;48.872;9.748;2023-04-06T02:47:30;0.07;;;0.07;;
13179;SDS011;6655;48.872;9.748;2023-04-06T02:49:58;0.00;;;0.00;;
13179;SDS011;6655;48.872;9.748;2023-04-06T02:52:25;0.10;;;0.10;;
13179;SDS011;6655;48.872;9.748;2023-04-06T02:54:52;0.00;;;0.00;;
13179;SDS011;6655;48.872;9.748;2023-04-06T02:57:24;0.00;;;0.00;;
13179;SDS011;6655;48.872;9.748;2023-04-06T02:59:51;0.00;;;0.00;;
13179;SDS011;6655;48.872;9.748;2023-04-06T03:02:23;0.10;;;0.10;;
13179;SDS011;6655;48.872;9.748;2023-04-06T03:04:50;0.00;;;0.00;;
13179;SDS011;6655;48.872;9.748;2023-04-06T03:07:30;0.00;;;0.00;;
13179;SDS011;6655;48.872;9.748;2023-04-06T03:09:56;0.00;;;0.00;;
13179;SDS011;6655;48.872;9.748;2023-04-06T03:12:23;0.00;;;0.00;;
13179;SDS011;6655;48.872;9.748;2023-04-06T03:15:10;0.10;;;0.10;;
13179;SDS011;6655;48.872;9.748;2023-04-06T03:17:39;0.33;;;0.33;;
13179;SDS011;6655;48.872;9.748;2023-04-06T03:20:11;0.00;;;0.00;;
13179;SDS011;6655;48.872;9.748;2023-04-06T03:22:39;0.00;;;0.00;;
13179;SDS011;6655;48.872;9.748;2023-04-06T03:25:09;0.10;;;0.10;;
13179;SDS011;6655;48.872;9.748;2023-04-06T03:27:35;0.00;;;0.00;;
13179;SDS011;6655;48.872;9.748;2023-04-06T03:30:03;0.00;;;0.00;;
13179;SDS011;6655;48.872;9.748;2023-04-06T03:32:33;0.00;;;0.00;;
13179;SDS011;6655;48.872;9.748;2023-04-06T03:35:01;0.00;;;0.00;;
13179;SDS011;6655;48.872;9.748;2023-04-06T03:37:27;0.00;;;0.00;;
13179;SDS011;6655;48.872;9.748;2023-04-06T03:40:00;0.00;;;0.00;;
13179;SDS011;6655;48.872;9.748;2023-04-06T03:42:27;0.00;;;0.00;;
13179;SDS011;6655;48.872;9.748;2023-04-06T03:45:00;0.00;;;0.00;;
13179;SDS011;6655;48.872;9.748;2023-04-06T03:47:27;0.00;;;0.00;;
13179;SDS011;6655;48.872;9.748;2023-04-06T03:49:57;0.00;;;0.00;;
13179;SDS011;6655;48.872;9.748;2023-04-06T03:52:24;0.00;;;0.00;;
13179;SDS011;6655;48.872;9.748;2023-04-06T03:54:51;0.00;;;0.00;;
13179;SDS011;6655;48.872;9.748;2023-04-06T03:57:19;0.37;;;0.37;;
13179;SDS011;6655;48.872;9.748;2023-04-06T03:59:45;0.00;;;0.00;;
13179;SDS011;6655;48.872;9.748;2023-04-06T04:02:12;0.00;;;0.00;;
13179;SDS011;6655;48.872;9.748;2023-04-06T04:04:38;0.07;;;0.07;;
13179;SDS011;6655;48.872;9.748;2023-04-06T04:07:05;0.00;;;0.00;;
13179;SDS011;6655;48.872;9.748;2023-04-06T04:09:31;0.00;;;0.00;;
13179;SDS011;6655;48.872;9.748;2023-04-06T04:11:58;0.00;;;0.00;;
13179;SDS011;6655;48.872;9.748;2023-04-06T04:14:26;0.40;;;0.40;;
13179;SDS011;6655;48.872;9.748;2023-04-06T04:16:52;0.00;;;0.00;;
13179;SDS011;6655;48.872;9.748;2023-04-06T04:19:19;0.40;;;0.40;;
13179;SDS011;6655;48.872;9.748;2023-04-06T04:21:46;0.00;;;0.00;;
13179;SDS011;6655;48.872;9.748;2023-04-06T04:24:17;0.00;;;0.00;;
13179;SDS011;6655;48.872;9.748;2023-04-06T04:26:43;0.10;;;0.10;;
13179;SDS011;6655;48.872;9.748;2023-04-06T04:29:10;0.00;;;0.00;;
13179;SDS011;6655;48.872;9.748;2023-04-06T04:31:38;0.00;;;0.00;;
13179;SDS011;6655;48.872;9.748;2023-04-06T04:34:14;0.20;;;0.20;;
13179;SDS011;6655;48.872;9.748;2023-04-06T04:36:40;0.00;;;0.00;;
13179;SDS011;6655;48.872;9.748;2023-04-06T04:39:10;0.00;;;0.00;;
13179;SDS011;6655;48.872;9.748;2023-04-06T04:41:41;0.00;;;0.00;;
13179;SDS011;6655;48.872;9.748;2023-04-06T04:44:10;0.00;;;0.00;;
13179;SDS011;6655;48.872;9.748;2023-04-06T04:46:38;0.00;;;0.00;;
13179;SDS011;6655;48.872;9.748;2023-04-06T04:49:07;0.20;;;0.20;;
13179;SDS011;6655;48.872;9.748;2023-04-06T04:51:33;0.00;;;0.00;;
13179;SDS011;6655;48.872;9.748;2023-04-06T04:54:12;0.00;;;0.00;;
13179;SDS011;6655;48.872;9.748;2023-04-06T04:56:40;0.00;;;0.00;;
13179;SDS011;6655;48.872;9.748;2023-04-06T04:59:21;0.13;;;0.13;;
13179;SDS011;6655;48.872;9.748;2023-04-06T05:01:55;0.00;;;0.00;;
13179;SDS011;6655;48.872;9.748;2023-04-06T05:04:29;0.00;;;0.00;;
13179;SDS011;6655;48.872;9.748;2023-04-06T05:07:03;0.00;;;0.00;;
13179;SDS011;6655;48.872;9.748;2023-04-06T05:09:30;0.00;;;0.00;;
13179;SDS011;6655;48.872;9.748;2023-04-06T05:11:56;0.00;;;0.00;;
13179;SDS011;6655;48.872;9.748;2023-04-06T05:14:25;0.83;;;0.63;;
13179;SDS011;6655;48.872;9.748;2023-04-06T05:16:51;0.00;;;0.00;;
13179;SDS011;6655;48.872;9.748;2023-04-06T05:19:23;0.00;;;0.00;;
13179;SDS011;6655;48.872;9.748;2023-04-06T05:21:49;0.00;;;0.00;;
13179;SDS011;6655;48.872;9.748;2023-04-06T05:24:17;0.00;;;0.00;;
13179;SDS011;6655;48.872;9.748;2023-04-06T05:26:45;0.00;;;0.00;;
13179;SDS011;6655;48.872;9.748;2023-04-06T05:29:19;0.00;;;0.00;;
13179;SDS011;6655;48.872;9.748;2023-04-06T05:31:46;0.00;;;0.00;;
13179;SDS011;6655;48.872;9.748;2023-04-06T05:34:13;0.00;;;0.00;;
13179;SDS011;6655;48.872;9.748;2023-04-06T05:36:41;0.00;;;0.00;;
13179;SDS011;6655;48.872;9.748;2023-04-06T05:39:16;0.00;;;0.00;;
13179;SDS011;6655;48.872;9.748;2023-04-06T05:41:46;0.00;;;0.00;;
13179;SDS011;6655;48.872;9.748;2023-04-06T05:44:14;0.17;;;0.17;;
13179;SDS011;6655;48.872;9.748;2023-04-06T05:46:45;0.00;;;0.00;;
13179;SDS011;6655;48.872;9.748;2023-04-06T05:49:15;0.00;;;0.00;;
13179;SDS011;6655;48.872;9.748;2023-04-06T05:51:43;0.00;;;0.00;;
13179;SDS011;6655;48.872;9.748;2023-04-06T05:54:09;0.00;;;0.00;;
13179;SDS011;6655;48.872;9.748;2023-04-06T05:56:36;0.00;;;0.00;;
13179;SDS011;6655;48.872;9.748;2023-04-06T05:59:03;0.00;;;0.00;;
13179;SDS011;6655;48.872;9.748;2023-04-06T06:01:30;0.00;;;0.00;;
13179;SDS011;6655;48.872;9.748;2023-04-06T06:03:57;0.00;;;0.00;;
13179;SDS011;6655;48.872;9.748;2023-04-06T06:06:27;0.10;;;0.10;;
13179;SDS011;6655;48.872;9.748;2023-04-06T06:09:16;0.00;;;0.00;;
13179;SDS011;6655;48.872;9.748;2023-04-06T06:11:53;0.00;;;0.00;;
13179;SDS011;6655;48.872;9.748;2023-04-06T06:14:24;0.00;;;0.00;;
13179;SDS011;6655;48.872;9.748;2023-04-06T06:16:53;0.13;;;0.13;;
13179;SDS011;6655;48.872;9.748;2023-04-06T06:19:20;0.00;;;0.00;;
13179;SDS011;6655;48.872;9.748;2023-04-06T06:21:48;0.00;;;0.00;;
13179;SDS011;6655;48.872;9.748;2023-04-06T06:24:16;0.00;;;0.00;;
13179;SDS011;6655;48.872;9.748;2023-04-06T06:26:43;0.10;;;0.10;;
13179;SDS011;6655;48.872;9.748;2023-04-06T06:29:12;0.00;;;0.00;;
13179;SDS011;6655;48.872;9.748;2023-04-06T06:31:38;0.00;;;0.00;;
13179;SDS011;6655;48.872;9.748;2023-04-06T06:34:05;0.00;;;0.00;;
13179;SDS011;6655;48.872;9.748;2023-04-06T06:36:33;0.00;;;0.00;;
13179;SDS011;6655;48.872;9.748;2023-04-06T06:39:01;0.20;;;0.20;;
13179;SDS011;6655;48.872;9.748;2023-04-06T06:41:30;0.00;;;0.00;;
13179;SDS011;6655;48.872;9.748;2023-04-06T06:43:57;0.00;;;0.00;;
13179;SDS011;6655;48.872;9.748;2023-04-06T06:46:24;0.20;;;0.20;;
13179;SDS011;6655;48.872;9.748;2023-04-06T06:48:50;0.00;;;0.00;;
13179;SDS011;6655;48.872;9.748;2023-04-06T06:51:17;0.00;;;0.00;;
13179;SDS011;6655;48.872;9.748;2023-04-06T06:53:43;0.10;;;0.10;;
13179;SDS011;6655;48.872;9.748;2023-04-06T06:56:10;0.00;;;0.00;;
13179;SDS011;6655;48.872;9.748;2023-04-06T06:58:39;0.00;;;0.00;;
13179;SDS011;6655;48.872;9.748;2023-04-06T07:01:05;0.00;;;0.00;;
13179;SDS011;6655;48.872;9.748;2023-04-06T07:03:33;0.00;;;0.00;;
13179;SDS011;6655;48.872;9.748;2023-04-06T07:06:00;0.00;;;0.00;;
13179;SDS011;6655;48.872;9.748;2023-04-06T07:08:26;0.10;;;0.10;;
13179;SDS011;6655;48.872;9.748;2023-04-06T07:10:53;0.10;;;0.10;;
13179;SDS011;6655;48.872;9.748;2023-04-06T07:13:21;0.23;;;0.23;;
13179;SDS011;6655;48.872;9.748;2023-04-06T07:15:51;0.00;;;0.00;;
13179;SDS011;6655;48.872;9.748;2023-04-06T07:18:18;0.00;;;0.00;;
13179;SDS011;6655;48.872;9.748;2023-04-06T07:20:45;0.20;;;0.20;;
13179;SDS011;6655;48.872;9.748;2023-04-06T07:23:12;0.00;;;0.00;;
13179;SDS011;6655;48.872;9.748;2023-04-06T07:25:38;0.00;;;0.00;;
13179;SDS011;6655;48.872;9.748;2023-04-06T07:28:05;0.00;;;0.00;;
13179;SDS011;6655;48.872;9.748;2023-04-06T07:30:31;0.00;;;0.00;;
13179;SDS011;6655;48.872;9.748;2023-04-06T07:33:00;0.00;;;0.00;;
13179;SDS011;6655;48.872;9.748;2023-04-06T07:35:27;0.10;;;0.10;;
13179;SDS011;6655;48.872;9.748;2023-04-06T07:37:55;0.00;;;0.00;;
13179;SDS011;6655;48.872;9.748;2023-04-06T07:40:22;0.00;;;0.00;;
13179;SDS011;6655;48.872;9.748;2023-04-06T07:42:50;0.77;;;0.13;;
13179;SDS011;6655;48.872;9.748;2023-04-06T07:45:16;0.17;;;0.17;;
13179;SDS011;6655;48.872;9.748;2023-04-06T07:47:43;0.10;;;0.10;;
13179;SDS011;6655;48.872;9.748;2023-04-06T07:50:12;0.10;;;0.10;;
13179;SDS011;6655;48.872;9.748;2023-04-06T07:52:38;0.23;;;0.23;;
13179;SDS011;6655;48.872;9.748;2023-04-06T07:55:06;0.23;;;0.23;;
13179;SDS011;6655;48.872;9.748;2023-04-06T07:57:33;0.30;;;0.30;;
13179;SDS011;6655;48.872;9.748;2023-04-06T07:59:59;0.10;;;0.10;;
13179;SDS011;6655;48.872;9.748;2023-04-06T08:02:26;0.10;;;0.10;;
13179;SDS011;6655;48.872;9.748;2023-04-06T08:04:52;0.40;;;0.40;;
13179;SDS011;6655;48.872;9.748;2023-04-06T08:07:20;0.50;;;0.50;;
13179;SDS011;6655;48.872;9.748;2023-04-06T08:09:46;0.60;;;0.60;;
13179;SDS011;6655;48.872;9.748;2023-04-06T08:12:13;0.47;;;0.47;;
13179;SDS011;6655;48.872;9.748;2023-04-06T08:14:39;0.53;;;0.53;;
13179;SDS011;6655;48.872;9.748;2023-04-06T08:17:06;0.30;;;0.30;;
13179;SDS011;6655;48.872;9.748;2023-04-06T08:19:32;0.80;;;0.67;;
13179;SDS011;6655;48.872;9.748;2023-04-06T08:21:59;0.20;;;0.20;;
13179;SDS011;6655;48.872;9.748;2023-04-06T08:24:27;0.27;;;0.27;;
13179;SDS011;6655;48.872;9.748;2023-04-06T08:26:53;4.90;;;0.80;;
13179;SDS011;6655;48.872;9.748;2023-04-06T08:29:20;0.77;;;0.77;;
13179;SDS011;6655;48.872;9.748;2023-04-06T08:31:46;0.53;;;0.53;;
13179;SDS011;6655;48.872;9.748;2023-04-06T08:34:13;0.73;;;0.70;;
13179;SDS011;6655;48.872;9.748;2023-04-06T08:36:40;0.40;;;0.40;;
13179;SDS011;6655;48.872;9.748;2023-04-06T08:39:07;0.20;;;0.20;;
13179;SDS011;6655;48.872;9.748;2023-04-06T08:41:34;0.17;;;0.17;;
13179;SDS011;6655;48.872;9.748;2023-04-06T08:44:02;0.33;;;0.33;;
13179;SDS011;6655;48.872;9.748;2023-04-06T08:46:28;0.52;;;0.52;;
13179;SDS011;6655;48.872;9.748;2023-04-06T08:48:55;0.40;;;0.40;;
13179;SDS011;6655;48.872;9.748;2023-04-06T08:51:22;0.50;;;0.50;;
13179;SDS011;6655;48.872;9.748;2023-04-06T08:53:50;1.33;;;0.67;;
13179;SDS011;6655;48.872;9.748;2023-04-06T08:56:19;0.40;;;0.40;;
13179;SDS011;6655;48.872;9.748;2023-04-06T08:58:48;0.85;;;0.85;;
13179;SDS011;6655;48.872;9.748;2023-04-06T09:01:15;2.30;;;0.85;;
13179;SDS011;6655;48.872;9.748;2023-04-06T09:03:43;0.98;;;0.98;;
13179;SDS011;6655;48.872;9.748;2023-04-06T09:06:11;1.55;;;1.00;;
13179;SDS011;6655;48.872;9.748;2023-04-06T09:08:39;0.82;;;0.82;;
13179;SDS011;6655;48.872;9.748;2023-04-06T09:11:06;0.95;;;0.73;;
13179;SDS011;6655;48.872;9.748;2023-04-06T09:13:43;0.40;;;0.40;;
13179;SDS011;6655;48.872;9.748;2023-04-06T09:16:12;0.77;;;0.77;;
13179;SDS011;6655;48.872;9.748;2023-04-06T09:18:38;0.77;;;0.52;;
13179;SDS011;6655;48.872;9.748;2023-04-06T09:21:05;4.53;;;0.77;;
13179;SDS011;6655;48.872;9.748;2023-04-06T09:23:32;0.30;;;0.30;;
13179;SDS011;6655;48.872;9.748;2023-04-06T09:26:06;0.60;;;0.60;;
13179;SDS011;6655;48.872;9.748;2023-04-06T09:28:43;0.63;;;0.63;;
13179;SDS011;6655;48.872;9.748;2023-04-06T09:31:11;0.77;;;0.77;;
13179;SDS011;6655;48.872;9.748;2023-04-06T09:33:38;0.38;;;0.38;;
13179;SDS011;6655;48.872;9.748;2023-04-06T09:36:06;0.73;;;0.73;;
13179;SDS011;6655;48.872;9.748;2023-04-06T09:38:32;2.65;;;1.20;;
13179;SDS011;6655;48.872;9.748;2023-04-06T09:40:59;0.20;;;0.20;;
13179;SDS011;6655;48.872;9.748;2023-04-06T09:43:25;0.28;;;0.28;;
13179;SDS011;6655;48.872;9.748;2023-04-06T09:45:52;0.30;;;0.30;;
13179;SDS011;6655;48.872;9.748;2023-04-06T09:48:20;0.50;;;0.50;;
13179;SDS011;6655;48.872;9.748;2023-04-06T09:50:47;0.73;;;0.50;;
13179;SDS011;6655;48.872;9.748;2023-04-06T09:53:14;0.28;;;0.28;;
13179;SDS011;6655;48.872;9.748;2023-04-06T09:55:42;0.57;;;0.57;;
13179;SDS011;6655;48.872;9.748;2023-04-06T09:58:09;0.50;;;0.50;;
13179;SDS011;6655;48.872;9.748;2023-04-06T10:00:40;0.30;;;0.30;;
13179;SDS011;6655;48.872;9.748;2023-04-06T10:03:08;0.17;;;0.17;;
13179;SDS011;6655;48.872;9.748;2023-04-06T10:05:41;0.75;;;0.75;;
13179;SDS011;6655;48.872;9.748;2023-04-06T10:08:08;0.77;;;0.77;;
13179;SDS011;6655;48.872;9.748;2023-04-06T10:10:35;2.35;;;1.17;;
13179;SDS011;6655;48.872;9.748;2023-04-06T10:13:02;0.95;;;0.95;;
13179;SDS011;6655;48.872;9.748;2023-04-06T10:15:30;0.20;;;0.20;;
13179;SDS011;6655;48.872;9.748;2023-04-06T10:17:56;0.30;;;0.30;;
13179;SDS011;6655;48.872;9.748;2023-04-06T10:20:25;0.60;;;0.60;;
13179;SDS011;6655;48.872;9.748;2023-04-06T10:22:57;0.63;;;0.60;;
13179;SDS011;6655;48.872;9.748;2023-04-06T10:25:26;0.50;;;0.50;;
13179;SDS011;6655;48.872;9.748;2023-04-06T10:27:58;0.73;;;0.73;;
13179;SDS011;6655;48.872;9.748;2023-04-06T10:30:25;0.43;;;0.43;;
13179;SDS011;6655;48.872;9.748;2023-04-06T10:32:51;2.47;;;0.98;;
13179;SDS011;6655;48.872;9.748;2023-04-06T10:35:18;0.88;;;0.88;;
13179;SDS011;6655;48.872;9.748;2023-04-06T10:37:51;0.50;;;0.50;;
13179;SDS011;6655;48.872;9.748;2023-04-06T10:40:20;0.77;;;0.52;;
13179;SDS011;6655;48.872;9.748;2023-04-06T10:42:47;0.45;;;0.45;;
13179;SDS011;6655;48.872;9.748;2023-04-06T10:45:20;0.70;;;0.60;;
13179;SDS011;6655;48.872;9.748;2023-04-06T10:47:47;0.55;;;0.55;;
13179;SDS011;6655;48.872;9.748;2023-04-06T10:50:14;0.25;;;0.25;;
13179;SDS011;6655;48.872;9.748;2023-04-06T10:52:40;1.85;;;0.73;;
13179;SDS011;6655;48.872;9.748;2023-04-06T10:55:08;0.32;;;0.32;;
13179;SDS011;6655;48.872;9.748;2023-04-06T10:57:36;0.30;;;0.30;;
13179;SDS011;6655;48.872;9.748;2023-04-06T11:00:03;0.38;;;0.38;;
13179;SDS011;6655;48.872;9.748;2023-04-06T11:02:30;0.65;;;0.60;;
13179;SDS011;6655;48.872;9.748;2023-04-06T11:04:57;0.95;;;0.95;;
13179;SDS011;6655;48.872;9.748;2023-04-06T11:07:24;0.13;;;0.13;;
13179;SDS011;6655;48.872;9.748;2023-04-06T11:09:52;0.65;;;0.60;;
13179;SDS011;6655;48.872;9.748;2023-04-06T11:12:22;0.20;;;0.20;;
13179;SDS011;6655;48.872;9.748;2023-04-06T11:14:55;2.05;;;0.43;;
13179;SDS011;6655;48.872;9.748;2023-04-06T11:17:26;1.10;;;1.00;;
13179;SDS011;6655;48.872;9.748;2023-04-06T11:19:53;0.70;;;0.65;;
13179;SDS011;6655;48.872;9.748;2023-04-06T11:22:19;0.00;;;0.00;;
13179;SDS011;6655;48.872;9.748;2023-04-06T11:24:46;2.08;;;0.50;;
13179;SDS011;6655;48.872;9.748;2023-04-06T11:27:14;1.13;;;1.13;;
13179;SDS011;6655;48.872;9.748;2023-04-06T11:29:41;0.17;;;0.17;;
13179;SDS011;6655;48.872;9.748;2023-04-06T11:32:09;0.57;;;0.35;;
13179;SDS011;6655;48.872;9.748;2023-04-06T11:34:37;0.63;;;0.63;;
13179;SDS011;6655;48.872;9.748;2023-04-06T11:37:07;0.43;;;0.43;;
13179;SDS011;6655;48.872;9.748;2023-04-06T11:39:37;0.65;;;0.65;;
13179;SDS011;6655;48.872;9.748;2023-04-06T11:42:04;0.68;;;0.68;;
13179;SDS011;6655;48.872;9.748;2023-04-06T11:44:31;0.35;;;0.35;;
13179;SDS011;6655;48.872;9.748;2023-04-06T11:46:59;2.53;;;0.82;;
13179;SDS011;6655;48.872;9.748;2023-04-06T11:49:28;11.07;;;1.05;;
13179;SDS011;6655;48.872;9.748;2023-04-06T11:51:54;0.77;;;0.77;;
13179;SDS011;6655;48.872;9.748;2023-04-06T11:54:29;0.45;;;0.45;;
13179;SDS011;6655;48.872;9.748;2023-04-06T11:56:55;0.10;;;0.10;;
13179;SDS011;6655;48.872;9.748;2023-04-06T11:59:22;0.20;;;0.20;;
13179;SDS011;6655;48.872;9.748;2023-04-06T12:01:48;0.30;;;0.30;;
13179;SDS011;6655;48.872;9.748;2023-04-06T12:04:15;1.27;;;0.80;;
13179;SDS011;6655;48.872;9.748;2023-04-06T12:06:44;0.40;;;0.40;;
13179;SDS011;6655;48.872;9.748;2023-04-06T12:09:10;2.08;;;0.52;;
13179;SDS011;6655;48.872;9.748;2023-04-06T12:11:37;0.30;;;0.30;;
13179;SDS011;6655;48.872;9.748;2023-04-06T12:14:04;0.17;;;0.17;;
13179;SDS011;6655;48.872;9.748;2023-04-06T12:18:59;0.10;;;0.10;;
13179;SDS011;6655;48.872;9.748;2023-04-06T12:21:26;0.40;;;0.40;;
13179;SDS011;6655;48.872;9.748;2023-04-06T12:23:54;0.45;;;0.45;;
13179;SDS011;6655;48.872;9.748;2023-04-06T12:26:21;0.63;;;0.60;;
13179;SDS011;6655;48.872;9.748;2023-04-06T12:28:47;0.28;;;0.28;;
13179;SDS011;6655;48.872;9.748;2023-04-06T12:31:14;0.40;;;0.40;;
13179;SDS011;6655;48.872;9.748;2023-04-06T12:33:40;0.20;;;0.20;;
13179;SDS011;6655;48.872;9.748;2023-04-06T12:36:11;0.50;;;0.50;;
13179;SDS011;6655;48.872;9.748;2023-04-06T12:38:37;0.55;;;0.52;;
13179;SDS011;6655;48.872;9.748;2023-04-06T12:41:06;0.70;;;0.70;;
13179;SDS011;6655;48.872;9.748;2023-04-06T12:43:33;0.10;;;0.10;;
13179;SDS011;6655;48.872;9.748;2023-04-06T12:45:59;0.20;;;0.20;;
13179;SDS011;6655;48.872;9.748;2023-04-06T12:48:26;0.55;;;0.55;;
13179;SDS011;6655;48.872;9.748;2023-04-06T12:50:57;2.10;;;0.82;;
13179;SDS011;6655;48.872;9.748;2023-04-06T12:53:23;1.92;;;0.85;;
13179;SDS011;6655;48.872;9.748;2023-04-06T12:55:50;0.95;;;0.95;;
13179;SDS011;6655;48.872;9.748;2023-04-06T12:58:18;0.20;;;0.20;;
13179;SDS011;6655;48.872;9.748;2023-04-06T13:00:44;0.75;;;0.40;;
13179;SDS011;6655;48.872;9.748;2023-04-06T13:03:11;0.20;;;0.20;;
13179;SDS011;6655;48.872;9.748;2023-04-06T13:05:43;1.85;;;1.27;;
13179;SDS011;6655;48.872;9.748;2023-04-06T13:08:09;0.40;;;0.40;;
13179;SDS011;6655;48.872;9.748;2023-04-06T13:10:36;0.28;;;0.28;;
13179;SDS011;6655;48.872;9.748;2023-04-06T13:13:02;0.55;;;0.55;;
13179;SDS011;6655;48.872;9.748;2023-04-06T13:15:31;0.20;;;0.20;;
13179;SDS011;6655;48.872;9.748;2023-04-06T13:17:57;0.35;;;0.35;;
13179;SDS011;6655;48.872;9.748;2023-04-06T13:20:24;0.20;;;0.20;;
13179;SDS011;6655;48.872;9.748;2023-04-06T13:22:50;0.15;;;0.15;;
13179;SDS011;6655;48.872;9.748;2023-04-06T13:25:17;0.30;;;0.30;;
13179;SDS011;6655;48.872;9.748;2023-04-06T13:27:43;0.28;;;0.28;;
13179;SDS011;6655;48.872;9.748;2023-04-06T13:30:13;0.17;;;0.17;;
13179;SDS011;6655;48.872;9.748;2023-04-06T13:32:41;0.40;;;0.40;;
13179;SDS011;6655;48.872;9.748;2023-04-06T13:35:08;1.77;;;1.67;;
13179;SDS011;6655;48.872;9.748;2023-04-06T13:37:34;0.38;;;0.38;;
13179;SDS011;6655;48.872;9.748;2023-04-06T13:40:01;0.30;;;0.30;;
13179;SDS011;6655;48.872;9.748;2023-04-06T13:42:28;0.45;;;0.43;;
13179;SDS011;6655;48.872;9.748;2023-04-06T13:44:56;0.20;;;0.20;;
13179;SDS011;6655;48.872;9.748;2023-04-06T13:47:22;0.28;;;0.28;;
13179;SDS011;6655;48.872;9.748;2023-04-06T13:49:50;0.85;;;0.47;;
13179;SDS011;6655;48.872;9.748;2023-04-06T13:52:17;0.43;;;0.43;;
13179;SDS011;6655;48.872;9.748;2023-04-06T13:54:44;0.10;;;0.10;;
13179;SDS011;6655;48.872;9.748;2023-04-06T13:57:11;0.10;;;0.10;;
13179;SDS011;6655;48.872;9.748;2023-04-06T13:59:38;0.30;;;0.30;;
13179;SDS011;6655;48.872;9.748;2023-04-06T14:02:05;0.38;;;0.38;;
13179;SDS011;6655;48.872;9.748;2023-04-06T14:04:31;0.38;;;0.38;;
13179;SDS011;6655;48.872;9.748;2023-04-06T14:07:00;0.40;;;0.40;;
13179;SDS011;6655;48.872;9.748;2023-04-06T14:09:27;0.45;;;0.45;;
13179;SDS011;6655;48.872;9.748;2023-04-06T14:11:53;0.22;;;0.22;;
13179;SDS011;6655;48.872;9.748;2023-04-06T14:14:20;0.20;;;0.20;;
13179;SDS011;6655;48.872;9.748;2023-04-06T14:16:47;0.20;;;0.20;;
13179;SDS011;6655;48.872;9.748;2023-04-06T14:19:14;0.35;;;0.35;;
13179;SDS011;6655;48.872;9.748;2023-04-06T14:21:42;0.65;;;0.65;;
13179;SDS011;6655;48.872;9.748;2023-04-06T14:24:10;0.20;;;0.20;;
13179;SDS011;6655;48.872;9.748;2023-04-06T14:26:37;0.20;;;0.20;;
13179;SDS011;6655;48.872;9.748;2023-04-06T14:29:04;0.30;;;0.30;;
13179;SDS011;6655;48.872;9.748;2023-04-06T14:31:31;0.20;;;0.20;;
13179;SDS011;6655;48.872;9.748;2023-04-06T14:33:57;0.65;;;0.47;;
13179;SDS011;6655;48.872;9.748;2023-04-06T14:36:24;0.50;;;0.50;;
13179;SDS011;6655;48.872;9.748;2023-04-06T14:38:52;0.20;;;0.20;;
13179;SDS011;6655;48.872;9.748;2023-04-06T14:41:22;0.30;;;0.30;;
13179;SDS011;6655;48.872;9.748;2023-04-06T14:43:48;0.73;;;0.73;;
13179;SDS011;6655;48.872;9.748;2023-04-06T14:46:17;0.25;;;0.25;;
13179;SDS011;6655;48.872;9.748;2023-04-06T14:48:44;0.20;;;0.20;;
13179;SDS011;6655;48.872;9.748;2023-04-06T14:51:11;0.30;;;0.30;;
13179;SDS011;6655;48.872;9.748;2023-04-06T14:53:37;0.40;;;0.40;;
13179;SDS011;6655;48.872;9.748;2023-04-06T14:56:04;0.50;;;0.50;;
13179;SDS011;6655;48.872;9.748;2023-04-06T14:58:32;0.28;;;0.28;;
13179;SDS011;6655;48.872;9.748;2023-04-06T15:00:59;0.10;;;0.10;;
13179;SDS011;6655;48.872;9.748;2023-04-06T15:03:26;3.72;;;1.13;;
13179;SDS011;6655;48.872;9.748;2023-04-06T15:05:53;0.28;;;0.28;;
13179;SDS011;6655;48.872;9.748;2023-04-06T15:08:19;0.15;;;0.15;;